createdAt,value
2022-11-16T00:00:26.407Z,14.73
2022-11-16T00:02:54.805Z,15.83
2022-11-16T00:05:27.943Z,16.23
2022-11-16T00:07:57.021Z,15.97
2022-11-16T00:10:25.567Z,16.50
2022-11-16T00:12:53.916Z,14.77
2022-11-16T00:15:22.516Z,18.43
2022-11-16T00:17:50.896Z,16.90
2022-11-16T00:20:19.373Z,15.20
2022-11-16T00:22:47.374Z,16.17
2022-11-16T00:25:15.838Z,15.57
2022-11-16T00:27:44.684Z,16.90
2022-11-16T00:30:13.564Z,17.03
2022-11-16T00:32:41.928Z,20.23
2022-11-16T00:35:10.680Z,16.40
2022-11-16T00:37:38.780Z,16.57
2022-11-16T00:40:07.875Z,18.83
2022-11-16T00:42:35.917Z,15.20
2022-11-16T00:45:04.481Z,17.20
2022-11-16T00:47:33.072Z,19.30
2022-11-16T00:50:01.448Z,18.17
2022-11-16T00:52:29.989Z,19.00
2022-11-16T00:54:58.373Z,23.50
2022-11-16T00:57:26.844Z,15.60
2022-11-16T00:59:55.240Z,20.67
2022-11-16T01:02:23.910Z,18.87
2022-11-16T01:04:52.322Z,18.00
2022-11-16T01:07:20.803Z,16.77
2022-11-16T01:09:49.186Z,20.53
2022-11-16T01:12:16.390Z,19.17
2022-11-16T01:14:47.996Z,17.30
2022-11-16T01:17:16.728Z,18.33
2022-11-16T01:19:45.211Z,18.60
2022-11-16T01:22:13.608Z,20.20
2022-11-16T01:24:42.040Z,15.27
2022-11-16T01:27:10.497Z,16.73
2022-11-16T02:04:42.071Z,16.40
2022-11-16T02:08:01.558Z,18.77
2022-11-16T02:10:55.403Z,20.77
2022-11-16T02:14:05.259Z,18.87
2022-11-16T02:17:21.560Z,17.70
2022-11-16T02:20:31.215Z,19.60
2022-11-16T02:23:29.532Z,17.90
2022-11-16T02:26:28.587Z,18.13
2022-11-16T02:30:00.168Z,17.77
2022-11-16T02:33:04.022Z,15.77
2022-11-16T02:35:51.031Z,16.47
2022-11-16T02:38:45.777Z,15.73
2022-11-16T02:41:19.972Z,20.07
2022-11-16T02:44:16.690Z,20.67
2022-11-16T02:46:48.644Z,19.27
2022-11-16T02:49:20.345Z,18.37
2022-11-16T02:51:49.878Z,18.53
2022-11-16T02:54:19.442Z,19.90
2022-11-16T02:57:05.810Z,17.23
2022-11-16T02:59:47.567Z,18.40
2022-11-16T03:02:52.888Z,19.77
2022-11-16T03:05:33.039Z,17.40
2022-11-16T03:08:24.653Z,20.03
2022-11-16T03:11:15.682Z,16.83
2022-11-16T03:13:45.477Z,17.50
2022-11-16T03:16:29.052Z,16.87
2022-11-16T03:19:00.029Z,16.80
2022-11-16T03:21:45.364Z,17.73
2022-11-16T03:24:13.925Z,15.83
2022-11-16T03:27:35.079Z,16.57
2022-11-16T03:30:12.474Z,16.20
2022-11-16T03:33:11.817Z,19.07
2022-11-16T03:35:57.430Z,16.77
2022-11-16T03:38:28.684Z,16.13
2022-11-16T03:41:02.706Z,16.27
2022-11-16T03:43:33.038Z,20.27
2022-11-16T03:46:02.067Z,19.47
2022-11-16T03:48:37.929Z,19.20
2022-11-16T03:51:07.749Z,17.43
2022-11-16T03:53:36.193Z,17.03
2022-11-16T03:56:05.189Z,16.33
2022-11-16T03:58:33.880Z,17.00
2022-11-16T04:01:04.291Z,15.67
2022-11-16T04:03:32.886Z,17.60
2022-11-16T04:06:19.026Z,15.67
2022-11-16T04:09:04.797Z,18.93
2022-11-16T04:11:50.467Z,15.17
2022-11-16T04:14:39.469Z,15.73
2022-11-16T04:17:35.232Z,19.50
2022-11-16T04:20:21.295Z,15.40
2022-11-16T04:23:11.246Z,15.37
2022-11-16T04:25:42.291Z,14.93
2022-11-16T04:28:16.620Z,17.07
2022-11-16T04:31:08.370Z,17.13
2022-11-16T04:33:54.140Z,16.43
2022-11-16T04:36:40.329Z,15.00
2022-11-16T04:39:09.207Z,13.63
2022-11-16T04:41:55.690Z,15.23
2022-11-16T04:44:29.788Z,16.37
2022-11-16T04:47:09.467Z,14.97
2022-11-16T04:49:39.022Z,16.57
2022-11-16T04:52:07.431Z,14.07
2022-11-16T04:54:35.880Z,14.73
2022-11-16T04:57:04.317Z,13.47
2022-11-16T04:59:32.794Z,15.57
2022-11-16T05:02:10.090Z,15.23
2022-11-16T05:04:44.968Z,17.97
2022-11-16T05:07:15.605Z,15.80
2022-11-16T05:09:46.703Z,16.30
2022-11-16T05:12:20.792Z,14.17
2022-11-16T05:14:49.389Z,16.37
2022-11-16T05:17:18.620Z,15.43
2022-11-16T05:20:04.764Z,14.93
2022-11-16T05:22:33.691Z,14.53
2022-11-16T05:25:02.203Z,16.57
2022-11-16T05:27:31.833Z,17.13
2022-11-16T05:30:00.484Z,13.83
2022-11-16T05:32:29.408Z,15.43
2022-11-16T05:34:57.770Z,15.03
2022-11-16T05:37:26.866Z,16.83
2022-11-16T05:39:56.942Z,15.43
2022-11-16T05:42:25.434Z,14.43
2022-11-16T05:44:54.019Z,15.90
2022-11-16T05:47:22.436Z,15.23
2022-11-16T05:49:51.045Z,16.33
2022-11-16T05:52:19.452Z,13.23
2022-11-16T05:54:48.091Z,15.77
2022-11-16T05:57:17.551Z,15.80
2022-11-16T05:59:46.081Z,15.83
2022-11-16T06:02:14.692Z,15.70
2022-11-16T06:04:43.182Z,15.10
2022-11-16T06:07:11.644Z,14.67
2022-11-16T06:09:40.079Z,12.37
2022-11-16T06:12:09.293Z,15.83
2022-11-16T06:14:37.692Z,15.03
2022-11-16T06:17:06.400Z,14.50
2022-11-16T06:19:36.002Z,14.47
2022-11-16T06:22:04.427Z,15.07
2022-11-16T06:24:34.772Z,16.57
2022-11-16T06:27:03.199Z,14.03
2022-11-16T06:29:31.714Z,13.80
2022-11-16T06:32:00.123Z,17.40
2022-11-16T06:34:28.538Z,14.63
2022-11-16T06:36:56.966Z,14.43
2022-11-16T06:39:25.349Z,14.00
2022-11-16T06:41:56.314Z,15.47
2022-11-16T06:44:24.706Z,15.53
2022-11-16T06:46:53.150Z,15.27
2022-11-16T06:49:21.504Z,15.43
2022-11-16T06:51:50.028Z,13.73
2022-11-16T06:54:18.415Z,15.73
2022-11-16T06:56:46.923Z,14.30
2022-11-16T06:59:15.538Z,16.20
2022-11-16T07:01:45.188Z,18.20
2022-11-16T07:04:13.743Z,15.37
2022-11-16T07:06:42.142Z,15.50
2022-11-16T07:09:11.159Z,14.10
2022-11-16T07:11:39.909Z,14.63
2022-11-16T07:14:09.589Z,14.97
2022-11-16T07:16:38.562Z,16.83
2022-11-16T07:19:07.775Z,15.27
2022-11-16T07:21:36.975Z,18.07
2022-11-16T07:24:05.756Z,16.00
2022-11-16T07:26:35.851Z,18.37
2022-11-16T07:29:04.505Z,17.23
2022-11-16T07:31:32.961Z,16.60
2022-11-16T07:34:01.375Z,16.20
2022-11-16T07:36:31.885Z,16.80
2022-11-16T07:39:00.400Z,14.33
2022-11-16T07:41:28.882Z,16.57
2022-11-16T07:43:57.591Z,15.93
2022-11-16T07:49:17.324Z,13.33
2022-11-16T07:51:46.710Z,14.83
2022-11-16T07:54:16.253Z,13.30
2022-11-16T07:56:44.685Z,14.27
2022-11-16T07:59:13.733Z,13.80
2022-11-16T08:01:42.250Z,15.20
2022-11-16T08:04:10.713Z,15.00
2022-11-16T08:06:39.271Z,12.73
2022-11-16T08:09:07.710Z,12.00
2022-11-16T08:11:36.231Z,11.60
2022-11-16T08:14:04.746Z,13.03
2022-11-16T08:16:34.111Z,14.47
2022-11-16T08:19:03.477Z,12.43
2022-11-16T08:21:31.993Z,13.40
2022-11-16T08:24:00.527Z,12.67
2022-11-16T08:26:29.107Z,13.57
2022-11-16T08:28:57.794Z,9.83
2022-11-16T08:31:33.619Z,11.27
2022-11-16T08:34:02.564Z,9.80
2022-11-16T08:36:31.066Z,11.53
2022-11-16T08:38:59.522Z,13.47
2022-11-16T08:41:28.040Z,9.93
2022-11-16T08:43:57.139Z,8.80
2022-11-16T08:46:25.642Z,11.57
2022-11-16T08:48:58.021Z,11.50
2022-11-16T08:51:29.787Z,10.73
2022-11-16T08:54:00.040Z,10.23
2022-11-16T08:56:30.155Z,9.60
2022-11-16T08:58:59.528Z,11.20
2022-11-16T09:01:31.403Z,8.80
2022-11-16T09:04:00.406Z,9.17
2022-11-16T09:06:29.484Z,10.43
2022-11-16T09:08:59.631Z,10.23
2022-11-16T09:11:28.492Z,11.77
2022-11-16T09:13:57.403Z,10.07
2022-11-16T09:16:27.876Z,10.27
2022-11-16T09:18:56.815Z,8.63
2022-11-16T09:21:30.232Z,10.30
2022-11-16T09:23:59.316Z,10.93
2022-11-16T09:26:27.789Z,13.50
2022-11-16T09:29:03.310Z,9.20
2022-11-16T09:31:37.212Z,10.97
2022-11-16T09:34:06.347Z,9.73
2022-11-16T09:36:35.183Z,11.93
2022-11-16T09:42:44.333Z,12.23
2022-11-16T09:45:40.229Z,11.67
2022-11-16T09:48:13.705Z,12.13
2022-11-16T09:51:08.200Z,13.20
2022-11-16T09:54:03.683Z,14.47
2022-11-16T09:56:36.890Z,10.67
2022-11-16T09:59:17.975Z,14.63
2022-11-16T10:02:13.949Z,11.70
2022-11-16T10:04:58.265Z,11.90
2022-11-16T10:07:35.108Z,11.90
2022-11-16T10:10:03.557Z,10.53
2022-11-16T10:12:54.769Z,10.33
2022-11-16T10:15:23.993Z,10.03
2022-11-16T10:18:38.557Z,11.53
2022-11-16T10:21:22.665Z,11.43
2022-11-16T10:24:14.360Z,11.17
2022-11-16T10:26:48.374Z,11.60
2022-11-16T10:29:41.196Z,11.63
2022-11-16T10:32:18.819Z,9.97
2022-11-16T10:34:53.581Z,10.50
2022-11-16T10:37:23.605Z,12.03
2022-11-16T10:39:54.297Z,10.17
2022-11-16T10:42:54.908Z,13.03
2022-11-16T10:45:45.989Z,12.90
2022-11-16T10:48:42.862Z,13.33
2022-11-16T10:51:11.948Z,12.07
2022-11-16T10:53:44.319Z,10.97
2022-11-16T10:56:30.155Z,11.17
2022-11-16T10:59:03.299Z,12.30
2022-11-16T11:01:53.297Z,11.83
2022-11-16T11:04:25.574Z,12.03
2022-11-16T11:06:59.923Z,11.80
2022-11-16T11:09:33.864Z,12.30
2022-11-16T11:12:32.158Z,11.87
2022-11-16T11:15:04.704Z,12.17
2022-11-16T11:17:35.486Z,10.80
2022-11-16T11:20:12.700Z,10.33
2022-11-16T11:22:58.093Z,13.37
2022-11-16T11:25:41.242Z,13.50
2022-11-16T11:28:32.911Z,11.00
2022-11-16T11:31:13.759Z,16.60
2022-11-16T11:34:28.859Z,10.97
2022-11-16T11:37:02.500Z,10.63
2022-11-16T11:39:37.694Z,9.57
2022-11-16T11:42:15.062Z,11.50
2022-11-16T11:45:07.679Z,10.40
2022-11-16T11:48:04.004Z,10.33
2022-11-16T11:50:37.824Z,11.27
2022-11-16T11:53:13.167Z,10.70
2022-11-16T11:55:41.703Z,11.63
2022-11-16T11:58:17.845Z,12.37
2022-11-16T12:01:36.670Z,10.87
2022-11-16T12:05:00.283Z,11.27
2022-11-16T12:07:55.384Z,11.20
2022-11-16T12:10:55.998Z,12.93
2022-11-16T12:14:05.345Z,12.37
2022-11-16T12:17:24.691Z,10.40
2022-11-16T12:20:20.623Z,10.00
2022-11-16T12:23:30.871Z,10.17
2022-11-16T12:26:22.824Z,13.90
2022-11-16T12:29:21.937Z,14.53
2022-11-16T12:32:19.025Z,18.40
2022-11-16T12:35:21.822Z,19.33
2022-11-16T12:38:26.431Z,18.57
2022-11-16T12:41:44.910Z,17.83
2022-11-16T12:44:20.972Z,17.77
2022-11-16T12:47:51.846Z,20.20
2022-11-16T12:50:46.602Z,20.33
2022-11-16T12:53:31.513Z,17.17
2022-11-16T12:56:48.839Z,23.97
2022-11-16T13:00:03.005Z,22.53
2022-11-16T13:02:59.063Z,21.13
2022-11-16T13:05:51.273Z,25.20
2022-11-16T13:08:41.423Z,20.53
2022-11-16T13:11:19.304Z,22.50
2022-11-16T13:13:53.379Z,23.47
2022-11-16T13:16:24.279Z,24.50
2022-11-16T13:18:53.678Z,23.87
2022-11-16T13:22:03.767Z,27.27
2022-11-16T13:24:55.486Z,25.33
2022-11-16T13:27:45.058Z,24.50
2022-11-16T13:30:26.346Z,27.67
2022-11-16T13:33:33.278Z,26.00
2022-11-16T13:36:47.760Z,29.70
2022-11-16T13:39:22.940Z,31.90
2022-11-16T13:42:13.022Z,27.13
2022-11-16T13:44:41.363Z,32.53
2022-11-16T13:47:30.424Z,33.03
2022-11-16T13:50:05.554Z,31.13
2022-11-16T13:55:47.478Z,31.53
2022-11-16T13:58:22.841Z,32.27
2022-11-16T14:01:02.231Z,38.03
2022-11-16T14:03:40.111Z,34.67
2022-11-16T14:06:30.965Z,35.50
2022-11-16T14:09:01.755Z,33.97
2022-11-16T14:11:34.741Z,39.73
2022-11-16T14:14:11.322Z,36.30
2022-11-16T14:16:47.188Z,39.57
2022-11-16T14:19:47.620Z,42.13
2022-11-16T14:22:46.710Z,44.63
2022-11-16T14:25:31.905Z,39.40
2022-11-16T14:28:24.851Z,47.60
2022-11-16T14:31:30.760Z,44.30
2022-11-16T14:34:01.619Z,50.40
2022-11-16T14:36:43.475Z,51.33
2022-11-16T14:39:37.232Z,52.50
2022-11-16T14:42:16.340Z,46.60
2022-11-16T14:44:45.131Z,50.67
2022-11-16T14:47:30.478Z,55.43
2022-11-16T14:49:58.664Z,52.47
2022-11-16T14:52:38.139Z,54.07
2022-11-16T14:55:09.803Z,48.03
2022-11-16T14:57:38.283Z,56.40
2022-11-16T15:00:19.014Z,51.67
2022-11-16T15:02:51.816Z,51.20
2022-11-16T15:05:31.189Z,53.60
2022-11-16T15:08:01.324Z,55.77
2022-11-16T15:10:30.619Z,59.73
2022-11-16T15:12:59.375Z,62.83
2022-11-16T15:15:31.673Z,55.93
2022-11-16T15:18:12.990Z,49.93
2022-11-16T15:20:51.782Z,58.27
2022-11-16T15:23:23.871Z,60.17
2022-11-16T15:26:00.321Z,61.70
2022-11-16T15:28:31.682Z,65.80
2022-11-16T15:31:04.365Z,61.00
2022-11-16T15:33:40.678Z,63.07
2022-11-16T15:36:41.700Z,61.47
2022-11-16T15:39:22.120Z,60.50
2022-11-16T15:41:51.526Z,60.10
2022-11-16T15:44:23.674Z,60.13
2022-11-16T15:46:57.285Z,63.07
2022-11-16T15:49:36.583Z,63.93
2022-11-16T15:52:05.140Z,58.90
2022-11-16T15:54:56.577Z,61.43
2022-11-16T15:57:26.057Z,56.33
2022-11-16T15:59:57.467Z,55.10
2022-11-16T16:02:29.391Z,54.70
2022-11-16T16:04:57.560Z,53.33
2022-11-16T16:07:43.938Z,58.23
2022-11-16T16:10:21.046Z,54.90
2022-11-16T16:13:01.286Z,54.40
2022-11-16T16:15:34.047Z,53.10
2022-11-16T16:18:04.300Z,54.20
2022-11-16T16:20:34.885Z,56.40
2022-11-16T16:23:13.856Z,57.33
2022-11-16T16:25:47.477Z,50.40
2022-11-16T16:28:18.316Z,52.67
2022-11-16T16:30:46.355Z,46.37
2022-11-16T16:33:21.977Z,49.47
2022-11-16T16:35:50.998Z,61.50
2022-11-16T16:38:19.435Z,49.77
2022-11-16T16:40:48.094Z,45.97
2022-11-16T16:43:16.656Z,49.40
2022-11-16T16:45:45.542Z,38.20
2022-11-16T16:48:14.173Z,36.83
2022-11-16T16:50:42.368Z,34.77
2022-11-16T16:53:14.354Z,38.33
2022-11-16T16:55:47.589Z,33.33
2022-11-16T16:58:16.906Z,34.47
2022-11-16T17:00:45.843Z,33.83
2022-11-16T17:03:14.735Z,47.93
2022-11-16T17:05:42.920Z,47.13
2022-11-16T17:08:11.097Z,39.10
2022-11-16T17:10:39.860Z,32.00
2022-11-16T17:13:07.999Z,36.30
2022-11-16T17:15:36.567Z,34.50
2022-11-16T17:18:05.178Z,36.13
2022-11-16T17:20:34.229Z,32.60
2022-11-16T17:23:03.036Z,33.37
2022-11-16T17:25:32.995Z,32.53
2022-11-16T17:28:01.491Z,31.57
2022-11-16T17:30:29.602Z,29.43
2022-11-16T17:32:58.052Z,28.00
2022-11-16T17:35:26.247Z,29.33
2022-11-16T17:37:54.685Z,35.67
2022-11-16T17:40:23.231Z,30.27
2022-11-16T17:42:51.997Z,29.73
2022-11-16T17:45:20.156Z,28.17
2022-11-16T17:47:48.577Z,26.23
2022-11-16T17:50:16.966Z,27.57
2022-11-16T17:52:44.976Z,28.03
2022-11-16T17:55:12.993Z,22.87
2022-11-16T17:57:41.208Z,26.07
2022-11-16T18:00:10.189Z,25.77
2022-11-16T18:02:38.291Z,24.23
2022-11-16T18:05:06.993Z,23.93
2022-11-16T18:07:36.587Z,20.00
2022-11-16T18:10:04.977Z,19.97
2022-11-16T18:12:33.516Z,25.07
2022-11-16T18:15:27.074Z,23.47
2022-11-16T18:17:49.681Z,22.90
2022-11-16T18:20:18.301Z,19.90
2022-11-16T18:22:46.727Z,22.73
2022-11-16T18:25:15.432Z,19.43
2022-11-16T18:27:43.854Z,18.13
2022-11-16T18:30:12.409Z,16.43
2022-11-16T18:32:40.430Z,17.43
2022-11-16T18:35:09.995Z,19.10
2022-11-16T18:37:38.107Z,18.43
2022-11-16T18:40:07.126Z,18.67
2022-11-16T18:42:35.937Z,15.60
2022-11-16T18:45:04.338Z,15.83
2022-11-16T18:47:32.819Z,15.63
2022-11-16T18:50:01.052Z,12.20
2022-11-16T18:52:29.552Z,14.53
2022-11-16T18:54:57.703Z,11.33
2022-11-16T18:57:26.278Z,13.33
2022-11-16T18:59:54.692Z,12.23
2022-11-16T19:02:22.746Z,11.87
2022-11-16T19:04:51.377Z,13.93
2022-11-16T19:07:19.497Z,11.63
2022-11-16T19:09:47.611Z,11.63
2022-11-16T19:12:16.204Z,9.97
2022-11-16T19:14:44.505Z,11.93
2022-11-16T19:17:12.929Z,9.03
2022-11-16T19:19:41.405Z,11.60
2022-11-16T19:22:09.534Z,12.27
2022-11-16T19:24:38.673Z,8.50
2022-11-16T19:27:07.218Z,12.00
2022-11-16T19:29:36.164Z,9.63
2022-11-16T19:32:04.725Z,9.77
2022-11-16T19:34:33.619Z,8.07
2022-11-16T19:37:02.091Z,7.70
2022-11-16T19:39:30.137Z,7.73
2022-11-16T19:41:58.633Z,6.33
2022-11-16T19:44:26.957Z,7.87
2022-11-16T19:46:56.821Z,5.47
2022-11-16T19:49:25.320Z,4.63
2022-11-16T19:51:53.787Z,6.70
2022-11-16T19:54:22.455Z,4.87
2022-11-16T19:56:54.893Z,5.17
2022-11-16T19:59:23.730Z,6.33
2022-11-16T20:01:51.963Z,6.30
2022-11-16T20:04:20.054Z,5.27
2022-11-16T20:06:48.627Z,5.50
2022-11-16T20:09:18.042Z,5.53
2022-11-16T20:11:46.525Z,5.23
2022-11-16T20:14:15.268Z,4.27
2022-11-16T20:16:46.825Z,5.13
2022-11-16T20:19:15.785Z,5.83
2022-11-16T20:21:44.681Z,5.30
2022-11-16T20:24:16.004Z,5.13
2022-11-16T20:26:48.050Z,8.90
2022-11-16T20:29:19.542Z,6.23
2022-11-16T20:31:48.093Z,5.03
2022-11-16T20:34:20.339Z,5.47
2022-11-16T20:36:50.910Z,5.63
2022-11-16T20:39:21.340Z,4.67
2022-11-16T20:41:49.855Z,4.50
2022-11-16T20:44:22.273Z,6.70
2022-11-16T20:46:52.524Z,5.50
2022-11-16T20:49:21.362Z,5.07
2022-11-16T20:51:51.129Z,5.23
2022-11-16T20:54:19.567Z,4.63
2022-11-16T20:56:49.662Z,4.27
2022-11-16T20:59:18.330Z,4.00
2022-11-16T21:01:48.621Z,3.87
2022-11-16T21:04:17.510Z,5.57
2022-11-16T21:06:46.014Z,5.20
2022-11-16T21:09:22.152Z,4.53
2022-11-16T21:12:08.109Z,5.73
2022-11-16T21:14:36.515Z,4.43
2022-11-16T21:17:05.066Z,4.50
2022-11-16T21:19:33.567Z,4.70
2022-11-16T21:22:02.101Z,4.97
2022-11-16T21:24:32.106Z,4.47
2022-11-16T21:27:00.622Z,4.50
2022-11-16T21:29:29.058Z,4.57
2022-11-16T21:31:57.500Z,5.80
2022-11-16T21:34:27.875Z,5.37
2022-11-16T21:36:56.402Z,4.87
2022-11-16T21:39:25.252Z,5.40
2022-11-16T21:41:53.695Z,4.53
2022-11-16T21:44:22.166Z,4.47
2022-11-16T21:46:50.679Z,4.90
2022-11-16T21:49:19.143Z,4.67
2022-11-16T21:51:47.623Z,4.23
2022-11-16T21:54:16.402Z,4.47
2022-11-16T21:56:44.813Z,3.83
2022-11-16T21:59:13.220Z,4.33
2022-11-16T22:01:55.582Z,4.67
2022-11-16T22:04:41.372Z,5.13
2022-11-16T22:07:36.845Z,4.87
2022-11-16T22:10:13.619Z,5.20
2022-11-16T22:12:42.172Z,4.77
2022-11-16T22:15:10.882Z,5.20
2022-11-16T22:17:44.683Z,4.23
2022-11-16T22:20:13.252Z,4.23
2022-11-16T22:22:41.788Z,4.93
2022-11-16T22:25:10.694Z,5.30
2022-11-16T22:28:05.645Z,4.50
2022-11-16T22:30:27.714Z,4.43
2022-11-16T22:32:56.395Z,4.00
2022-11-16T22:35:25.003Z,4.33
2022-11-16T22:37:53.613Z,4.93
2022-11-16T22:40:22.028Z,5.23
2022-11-16T22:42:50.475Z,3.97
2022-11-16T22:45:18.992Z,4.87
2022-11-16T22:47:49.691Z,4.77
2022-11-16T22:50:24.090Z,4.50
2022-11-16T22:52:52.625Z,3.97
2022-11-16T22:55:21.264Z,3.90
2022-11-16T22:57:49.812Z,4.57
2022-11-16T23:00:18.929Z,5.37
2022-11-16T23:02:47.576Z,5.83
2022-11-16T23:05:16.079Z,3.73
2022-11-16T23:07:44.863Z,5.50
2022-11-16T23:10:13.376Z,6.27
2022-11-16T23:12:59.215Z,5.97
2022-11-16T23:15:45.184Z,6.37
2022-11-16T23:18:13.621Z,5.27
2022-11-16T23:21:07.867Z,6.67
2022-11-16T23:23:53.711Z,7.57
2022-11-16T23:26:42.460Z,6.17
2022-11-16T23:29:11.970Z,6.17
2022-11-16T23:31:40.779Z,5.67
2022-11-16T23:34:09.198Z,6.30
2022-11-16T23:36:37.712Z,4.83
2022-11-16T23:39:06.374Z,4.63
2022-11-16T23:41:52.264Z,6.37
2022-11-16T23:44:20.662Z,5.67
2022-11-16T23:46:49.060Z,5.87
2022-11-16T23:49:17.542Z,5.53
2022-11-16T23:51:45.929Z,6.37
2022-11-16T23:54:14.400Z,6.60
2022-11-16T23:56:42.827Z,6.03
2022-11-16T23:59:11.390Z,6.17
